KSHD/SHD METAR and TAF weather

Enter ICAO airport designator
Station Type Date Time Source
KSHD METAR 2021/09/24 02:35 UTC NOAA

KSHD 240235Z AUTO 00000KT 10SM CLR 09/09 A3006 RMK AO2 T00930085


Station Type Date Time Source
KSHD Decoded METAR 2021/09/24 02:35 UTC NOAA

Staunton / Shenandoah, VA, United States (KSHD) 38-16N 078-54W
Sep 23, 2021 - 10:35 PM EDT / 2021.09.24 0235 UTC
Wind: Calm:0
Visibility: 10 mile(s):0
Sky conditions: clear
Temperature: 48.7 F (9.3 C)
Dew Point: 47.3 F (8.5 C)
Relative Humidity: 94%
Pressure (altimeter): 30.06 in. Hg (1017 hPa)
ob: KSHD 240235Z AUTO 00000KT 10SM CLR 09/09 A3006 RMK AO2 T00930085
cycle: 2

Station Type Date Time Source
KSHD TAF UTC NOAA

Error!

Example: see airport list